KCNW/CNW METAR and TAF weather

Enter ICAO airport designator
Station Type Date Time Source
KCNW METAR 2019/10/21 01:55 UTC NOAA

KCNW 210155Z 16013G18KT 10SM SKC 28/20 A2964


Station Type Date Time Source
KCNW Decoded METAR 2019/10/21 01:55 UTC NOAA

Station name not available
Oct 20, 2019 - 09:55 PM EDT / 2019.10.21 0155 UTC
Wind: from the SSE (160 degrees) at 15 MPH (13 KT) gusting to 21 MPH (18 KT):0
Visibility: 10 mile(s):0
Sky conditions: clear
Temperature: 82 F (28 C)
Dew Point: 68 F (20 C)
Relative Humidity: 61%
Pressure (altimeter): 29.64 in. Hg (1003 hPa)
ob: KCNW 210155Z 16013G18KT 10SM SKC 28/20 A2964
cycle: 2

Station Type Date Time Source
KCNW TAF UTC NOAA

Error!

Example: see airport list